sensor_id;sensor_type;location;lat;lon;timestamp;P1;durP1;ratioP1;P2;durP2;ratioP2
45686;SDS011;31399;51.176;7.776;2023-07-22T00:01:31;15.73;;;7.68;;
45686;SDS011;31399;51.176;7.776;2023-07-22T00:03:58;15.88;;;8.10;;
45686;SDS011;31399;51.176;7.776;2023-07-22T00:06:25;15.50;;;7.30;;
45686;SDS011;31399;51.176;7.776;2023-07-22T00:08:52;15.27;;;7.55;;
45686;SDS011;31399;51.176;7.776;2023-07-22T00:11:20;19.30;;;7.80;;
45686;SDS011;31399;51.176;7.776;2023-07-22T00:13:46;20.08;;;7.78;;
45686;SDS011;31399;51.176;7.776;2023-07-22T00:16:13;15.13;;;6.82;;
45686;SDS011;31399;51.176;7.776;2023-07-22T00:18:39;14.25;;;7.45;;
45686;SDS011;31399;51.176;7.776;2023-07-22T00:21:06;14.93;;;7.00;;
45686;SDS011;31399;51.176;7.776;2023-07-22T00:23:33;15.95;;;7.45;;
45686;SDS011;31399;51.176;7.776;2023-07-22T00:25:59;20.80;;;7.78;;
45686;SDS011;31399;51.176;7.776;2023-07-22T00:28:26;16.95;;;8.05;;
45686;SDS011;31399;51.176;7.776;2023-07-22T00:30:53;17.85;;;6.60;;
45686;SDS011;31399;51.176;7.776;2023-07-22T00:33:20;13.25;;;7.10;;
45686;SDS011;31399;51.176;7.776;2023-07-22T00:35:49;14.10;;;7.13;;
45686;SDS011;31399;51.176;7.776;2023-07-22T00:38:17;15.18;;;6.72;;
45686;SDS011;31399;51.176;7.776;2023-07-22T00:40:44;14.55;;;6.93;;
45686;SDS011;31399;51.176;7.776;2023-07-22T00:43:11;19.33;;;8.20;;
45686;SDS011;31399;51.176;7.776;2023-07-22T00:45:37;15.88;;;8.30;;
45686;SDS011;31399;51.176;7.776;2023-07-22T00:48:05;14.20;;;7.28;;
45686;SDS011;31399;51.176;7.776;2023-07-22T00:50:33;17.27;;;7.85;;
45686;SDS011;31399;51.176;7.776;2023-07-22T00:53:01;17.52;;;6.60;;
45686;SDS011;31399;51.176;7.776;2023-07-22T00:55:27;13.80;;;7.13;;
45686;SDS011;31399;51.176;7.776;2023-07-22T00:57:54;13.43;;;7.53;;
45686;SDS011;31399;51.176;7.776;2023-07-22T01:00:22;15.23;;;7.65;;
45686;SDS011;31399;51.176;7.776;2023-07-22T01:02:48;18.35;;;7.07;;
45686;SDS011;31399;51.176;7.776;2023-07-22T01:05:15;15.27;;;7.13;;
45686;SDS011;31399;51.176;7.776;2023-07-22T01:07:42;14.02;;;6.95;;
45686;SDS011;31399;51.176;7.776;2023-07-22T01:10:10;14.73;;;6.47;;
45686;SDS011;31399;51.176;7.776;2023-07-22T01:12:36;15.13;;;8.07;;
45686;SDS011;31399;51.176;7.776;2023-07-22T01:15:04;21.35;;;8.18;;
45686;SDS011;31399;51.176;7.776;2023-07-22T01:17:34;19.10;;;8.33;;
45686;SDS011;31399;51.176;7.776;2023-07-22T01:20:03;19.77;;;7.97;;
45686;SDS011;31399;51.176;7.776;2023-07-22T01:22:31;15.15;;;7.47;;
45686;SDS011;31399;51.176;7.776;2023-07-22T01:24:58;16.52;;;6.72;;
45686;SDS011;31399;51.176;7.776;2023-07-22T01:27:26;13.13;;;7.25;;
45686;SDS011;31399;51.176;7.776;2023-07-22T01:29:53;17.83;;;8.20;;
45686;SDS011;31399;51.176;7.776;2023-07-22T01:32:20;21.85;;;8.82;;
45686;SDS011;31399;51.176;7.776;2023-07-22T01:34:46;20.98;;;8.32;;
45686;SDS011;31399;51.176;7.776;2023-07-22T01:37:13;18.25;;;8.55;;
45686;SDS011;31399;51.176;7.776;2023-07-22T01:39:39;18.80;;;8.40;;
45686;SDS011;31399;51.176;7.776;2023-07-22T01:42:06;19.52;;;8.70;;
45686;SDS011;31399;51.176;7.776;2023-07-22T01:44:33;16.38;;;7.65;;
45686;SDS011;31399;51.176;7.776;2023-07-22T01:47:01;12.98;;;5.93;;
45686;SDS011;31399;51.176;7.776;2023-07-22T01:49:29;11.27;;;5.95;;
45686;SDS011;31399;51.176;7.776;2023-07-22T01:51:55;19.15;;;6.35;;
45686;SDS011;31399;51.176;7.776;2023-07-22T01:54:22;16.15;;;8.38;;
45686;SDS011;31399;51.176;7.776;2023-07-22T01:56:49;19.48;;;7.18;;
45686;SDS011;31399;51.176;7.776;2023-07-22T01:59:15;16.52;;;7.22;;
45686;SDS011;31399;51.176;7.776;2023-07-22T02:01:42;15.18;;;8.23;;
45686;SDS011;31399;51.176;7.776;2023-07-22T02:04:08;20.80;;;8.48;;
45686;SDS011;31399;51.176;7.776;2023-07-22T02:06:37;16.85;;;8.82;;
45686;SDS011;31399;51.176;7.776;2023-07-22T02:09:04;18.60;;;8.30;;
45686;SDS011;31399;51.176;7.776;2023-07-22T02:11:40;19.80;;;7.68;;
45686;SDS011;31399;51.176;7.776;2023-07-22T02:14:07;15.40;;;7.70;;
45686;SDS011;31399;51.176;7.776;2023-07-22T02:16:36;15.98;;;7.55;;
45686;SDS011;31399;51.176;7.776;2023-07-22T02:19:03;17.80;;;7.60;;
45686;SDS011;31399;51.176;7.776;2023-07-22T02:21:30;17.17;;;7.63;;
45686;SDS011;31399;51.176;7.776;2023-07-22T02:23:57;16.27;;;8.10;;
45686;SDS011;31399;51.176;7.776;2023-07-22T02:26:23;16.17;;;7.47;;
45686;SDS011;31399;51.176;7.776;2023-07-22T02:28:51;13.38;;;7.22;;
45686;SDS011;31399;51.176;7.776;2023-07-22T02:31:17;15.57;;;7.78;;
45686;SDS011;31399;51.176;7.776;2023-07-22T02:33:44;13.90;;;7.22;;
45686;SDS011;31399;51.176;7.776;2023-07-22T02:36:10;14.30;;;6.20;;
45686;SDS011;31399;51.176;7.776;2023-07-22T02:38:37;17.50;;;7.57;;
45686;SDS011;31399;51.176;7.776;2023-07-22T02:41:04;13.55;;;6.10;;
45686;SDS011;31399;51.176;7.776;2023-07-22T02:43:33;12.43;;;6.63;;
45686;SDS011;31399;51.176;7.776;2023-07-22T02:46:01;18.85;;;7.13;;
45686;SDS011;31399;51.176;7.776;2023-07-22T02:48:29;16.83;;;7.28;;
45686;SDS011;31399;51.176;7.776;2023-07-22T02:51:06;14.95;;;7.00;;
45686;SDS011;31399;51.176;7.776;2023-07-22T02:53:34;18.83;;;7.32;;
45686;SDS011;31399;51.176;7.776;2023-07-22T02:56:03;11.68;;;6.70;;
45686;SDS011;31399;51.176;7.776;2023-07-22T02:58:30;17.15;;;6.88;;
45686;SDS011;31399;51.176;7.776;2023-07-22T03:00:57;15.98;;;6.25;;
45686;SDS011;31399;51.176;7.776;2023-07-22T03:03:26;15.38;;;7.15;;
45686;SDS011;31399;51.176;7.776;2023-07-22T03:05:53;11.15;;;6.25;;
45686;SDS011;31399;51.176;7.776;2023-07-22T03:08:20;12.68;;;5.97;;
45686;SDS011;31399;51.176;7.776;2023-07-22T03:10:46;14.93;;;6.30;;
45686;SDS011;31399;51.176;7.776;2023-07-22T03:13:15;14.93;;;6.55;;
45686;SDS011;31399;51.176;7.776;2023-07-22T03:15:42;10.65;;;5.07;;
45686;SDS011;31399;51.176;7.776;2023-07-22T03:18:09;23.33;;;7.35;;
45686;SDS011;31399;51.176;7.776;2023-07-22T03:20:38;16.73;;;6.57;;
45686;SDS011;31399;51.176;7.776;2023-07-22T03:23:05;14.70;;;6.03;;
45686;SDS011;31399;51.176;7.776;2023-07-22T03:25:33;15.57;;;7.05;;
45686;SDS011;31399;51.176;7.776;2023-07-22T03:28:04;12.80;;;6.63;;
45686;SDS011;31399;51.176;7.776;2023-07-22T03:30:31;13.52;;;6.28;;
45686;SDS011;31399;51.176;7.776;2023-07-22T03:32:59;13.57;;;6.53;;
45686;SDS011;31399;51.176;7.776;2023-07-22T03:35:27;13.85;;;6.82;;
45686;SDS011;31399;51.176;7.776;2023-07-22T03:37:54;10.32;;;6.15;;
45686;SDS011;31399;51.176;7.776;2023-07-22T03:40:21;12.63;;;6.90;;
45686;SDS011;31399;51.176;7.776;2023-07-22T03:42:49;14.50;;;7.25;;
45686;SDS011;31399;51.176;7.776;2023-07-22T03:45:17;21.90;;;7.80;;
45686;SDS011;31399;51.176;7.776;2023-07-22T03:47:44;21.25;;;8.75;;
45686;SDS011;31399;51.176;7.776;2023-07-22T03:50:12;16.70;;;7.88;;
45686;SDS011;31399;51.176;7.776;2023-07-22T03:52:39;17.90;;;7.82;;
45686;SDS011;31399;51.176;7.776;2023-07-22T03:55:05;17.27;;;7.38;;
45686;SDS011;31399;51.176;7.776;2023-07-22T03:57:32;15.57;;;7.15;;
45686;SDS011;31399;51.176;7.776;2023-07-22T04:00:02;13.43;;;6.70;;
45686;SDS011;31399;51.176;7.776;2023-07-22T04:02:30;15.88;;;6.85;;
45686;SDS011;31399;51.176;7.776;2023-07-22T04:04:56;12.35;;;6.57;;
45686;SDS011;31399;51.176;7.776;2023-07-22T04:07:23;19.63;;;7.00;;
45686;SDS011;31399;51.176;7.776;2023-07-22T04:09:50;16.70;;;7.45;;
45686;SDS011;31399;51.176;7.776;2023-07-22T04:12:16;16.75;;;7.85;;
45686;SDS011;31399;51.176;7.776;2023-07-22T04:14:43;19.55;;;9.60;;
45686;SDS011;31399;51.176;7.776;2023-07-22T04:17:10;16.95;;;7.95;;
45686;SDS011;31399;51.176;7.776;2023-07-22T04:19:36;19.80;;;8.60;;
45686;SDS011;31399;51.176;7.776;2023-07-22T04:22:04;17.10;;;8.32;;
45686;SDS011;31399;51.176;7.776;2023-07-22T04:24:31;16.88;;;8.32;;
45686;SDS011;31399;51.176;7.776;2023-07-22T04:26:58;15.35;;;7.63;;
45686;SDS011;31399;51.176;7.776;2023-07-22T04:29:25;14.90;;;8.13;;
45686;SDS011;31399;51.176;7.776;2023-07-22T04:31:56;15.63;;;8.02;;
45686;SDS011;31399;51.176;7.776;2023-07-22T04:34:23;16.00;;;7.20;;
45686;SDS011;31399;51.176;7.776;2023-07-22T04:36:51;14.52;;;6.90;;
45686;SDS011;31399;51.176;7.776;2023-07-22T04:39:18;12.75;;;7.15;;
45686;SDS011;31399;51.176;7.776;2023-07-22T04:41:45;14.77;;;7.55;;
45686;SDS011;31399;51.176;7.776;2023-07-22T04:44:11;14.45;;;6.70;;
45686;SDS011;31399;51.176;7.776;2023-07-22T04:46:38;12.63;;;6.63;;
45686;SDS011;31399;51.176;7.776;2023-07-22T04:49:04;12.48;;;6.80;;
45686;SDS011;31399;51.176;7.776;2023-07-22T04:51:31;18.77;;;6.68;;
45686;SDS011;31399;51.176;7.776;2023-07-22T04:53:58;14.80;;;6.35;;
45686;SDS011;31399;51.176;7.776;2023-07-22T04:56:24;11.68;;;5.85;;
45686;SDS011;31399;51.176;7.776;2023-07-22T04:58:51;13.25;;;6.20;;
45686;SDS011;31399;51.176;7.776;2023-07-22T05:01:18;9.45;;;5.13;;
45686;SDS011;31399;51.176;7.776;2023-07-22T05:03:45;13.15;;;6.30;;
45686;SDS011;31399;51.176;7.776;2023-07-22T05:06:12;12.60;;;6.18;;
45686;SDS011;31399;51.176;7.776;2023-07-22T05:08:39;9.13;;;5.35;;
45686;SDS011;31399;51.176;7.776;2023-07-22T05:11:06;9.38;;;5.53;;
45686;SDS011;31399;51.176;7.776;2023-07-22T05:13:33;9.98;;;6.03;;
45686;SDS011;31399;51.176;7.776;2023-07-22T05:15:59;11.95;;;5.70;;
45686;SDS011;31399;51.176;7.776;2023-07-22T05:18:26;10.35;;;5.65;;
45686;SDS011;31399;51.176;7.776;2023-07-22T05:20:52;9.40;;;5.32;;
45686;SDS011;31399;51.176;7.776;2023-07-22T05:23:19;9.60;;;4.90;;
45686;SDS011;31399;51.176;7.776;2023-07-22T05:25:52;12.68;;;5.22;;
45686;SDS011;31399;51.176;7.776;2023-07-22T05:28:19;9.05;;;5.80;;
45686;SDS011;31399;51.176;7.776;2023-07-22T05:30:50;13.15;;;5.38;;
45686;SDS011;31399;51.176;7.776;2023-07-22T05:33:16;9.77;;;5.15;;
45686;SDS011;31399;51.176;7.776;2023-07-22T05:35:43;11.40;;;5.90;;
45686;SDS011;31399;51.176;7.776;2023-07-22T05:38:13;7.18;;;4.95;;
45686;SDS011;31399;51.176;7.776;2023-07-22T05:40:40;9.95;;;5.22;;
45686;SDS011;31399;51.176;7.776;2023-07-22T05:43:06;10.95;;;5.30;;
45686;SDS011;31399;51.176;7.776;2023-07-22T05:45:33;10.43;;;5.32;;
45686;SDS011;31399;51.176;7.776;2023-07-22T05:48:00;7.75;;;4.82;;
45686;SDS011;31399;51.176;7.776;2023-07-22T05:50:26;8.55;;;5.05;;
45686;SDS011;31399;51.176;7.776;2023-07-22T05:52:53;10.73;;;5.20;;
45686;SDS011;31399;51.176;7.776;2023-07-22T05:55:20;5.03;;;3.55;;
45686;SDS011;31399;51.176;7.776;2023-07-22T05:57:46;10.18;;;4.90;;
45686;SDS011;31399;51.176;7.776;2023-07-22T06:00:13;7.03;;;4.30;;
45686;SDS011;31399;51.176;7.776;2023-07-22T06:02:40;7.60;;;4.90;;
45686;SDS011;31399;51.176;7.776;2023-07-22T06:05:07;8.38;;;4.85;;
45686;SDS011;31399;51.176;7.776;2023-07-22T06:07:34;10.18;;;4.75;;
45686;SDS011;31399;51.176;7.776;2023-07-22T06:10:01;8.63;;;5.03;;
45686;SDS011;31399;51.176;7.776;2023-07-22T06:12:27;6.95;;;4.32;;
45686;SDS011;31399;51.176;7.776;2023-07-22T06:14:55;12.70;;;5.10;;
45686;SDS011;31399;51.176;7.776;2023-07-22T06:17:22;8.13;;;5.20;;
45686;SDS011;31399;51.176;7.776;2023-07-22T06:19:48;10.85;;;4.30;;
45686;SDS011;31399;51.176;7.776;2023-07-22T06:22:15;8.55;;;4.57;;
45686;SDS011;31399;51.176;7.776;2023-07-22T06:24:41;7.15;;;4.38;;
45686;SDS011;31399;51.176;7.776;2023-07-22T06:27:08;7.85;;;4.00;;
45686;SDS011;31399;51.176;7.776;2023-07-22T06:29:35;7.55;;;5.05;;
45686;SDS011;31399;51.176;7.776;2023-07-22T06:32:01;9.70;;;4.50;;
45686;SDS011;31399;51.176;7.776;2023-07-22T06:34:28;7.97;;;4.68;;
45686;SDS011;31399;51.176;7.776;2023-07-22T06:36:55;11.38;;;4.80;;
45686;SDS011;31399;51.176;7.776;2023-07-22T06:39:21;10.65;;;4.45;;
45686;SDS011;31399;51.176;7.776;2023-07-22T06:41:48;13.73;;;4.65;;
45686;SDS011;31399;51.176;7.776;2023-07-22T06:44:14;9.38;;;4.53;;
45686;SDS011;31399;51.176;7.776;2023-07-22T06:46:41;9.60;;;5.65;;
45686;SDS011;31399;51.176;7.776;2023-07-22T06:49:08;11.25;;;4.97;;
45686;SDS011;31399;51.176;7.776;2023-07-22T06:51:35;10.00;;;5.13;;
45686;SDS011;31399;51.176;7.776;2023-07-22T06:54:02;9.80;;;4.82;;
45686;SDS011;31399;51.176;7.776;2023-07-22T06:56:29;10.90;;;5.63;;
45686;SDS011;31399;51.176;7.776;2023-07-22T06:58:56;11.43;;;6.22;;
45686;SDS011;31399;51.176;7.776;2023-07-22T07:01:23;11.05;;;5.22;;
45686;SDS011;31399;51.176;7.776;2023-07-22T07:03:49;10.57;;;6.18;;
45686;SDS011;31399;51.176;7.776;2023-07-22T07:06:17;11.45;;;6.05;;
45686;SDS011;31399;51.176;7.776;2023-07-22T07:08:43;8.50;;;4.78;;
45686;SDS011;31399;51.176;7.776;2023-07-22T07:11:10;9.95;;;5.57;;
45686;SDS011;31399;51.176;7.776;2023-07-22T07:13:36;7.47;;;5.18;;
45686;SDS011;31399;51.176;7.776;2023-07-22T07:16:20;9.27;;;5.30;;
45686;SDS011;31399;51.176;7.776;2023-07-22T07:18:51;11.93;;;5.72;;
45686;SDS011;31399;51.176;7.776;2023-07-22T07:21:19;13.93;;;5.30;;
45686;SDS011;31399;51.176;7.776;2023-07-22T07:23:46;12.95;;;5.20;;
45686;SDS011;31399;51.176;7.776;2023-07-22T07:26:13;9.98;;;5.15;;
45686;SDS011;31399;51.176;7.776;2023-07-22T07:28:39;11.02;;;5.53;;
45686;SDS011;31399;51.176;7.776;2023-07-22T07:31:06;9.90;;;4.80;;
45686;SDS011;31399;51.176;7.776;2023-07-22T07:33:33;7.85;;;4.80;;
45686;SDS011;31399;51.176;7.776;2023-07-22T07:36:00;8.65;;;4.70;;
45686;SDS011;31399;51.176;7.776;2023-07-22T07:38:27;9.98;;;5.03;;
45686;SDS011;31399;51.176;7.776;2023-07-22T07:41:05;9.60;;;5.05;;
45686;SDS011;31399;51.176;7.776;2023-07-22T07:43:38;9.95;;;5.13;;
45686;SDS011;31399;51.176;7.776;2023-07-22T07:46:18;8.98;;;4.68;;
45686;SDS011;31399;51.176;7.776;2023-07-22T07:48:47;8.90;;;5.00;;
45686;SDS011;31399;51.176;7.776;2023-07-22T07:51:14;9.25;;;4.70;;
45686;SDS011;31399;51.176;7.776;2023-07-22T07:53:42;8.15;;;4.43;;
45686;SDS011;31399;51.176;7.776;2023-07-22T07:56:10;9.40;;;5.20;;
45686;SDS011;31399;51.176;7.776;2023-07-22T07:58:38;8.30;;;4.93;;
45686;SDS011;31399;51.176;7.776;2023-07-22T08:01:05;7.80;;;4.25;;
45686;SDS011;31399;51.176;7.776;2023-07-22T08:03:33;7.95;;;4.63;;
45686;SDS011;31399;51.176;7.776;2023-07-22T08:06:01;8.05;;;5.00;;
45686;SDS011;31399;51.176;7.776;2023-07-22T08:08:28;11.52;;;5.15;;
45686;SDS011;31399;51.176;7.776;2023-07-22T08:11:02;7.65;;;4.38;;
45686;SDS011;31399;51.176;7.776;2023-07-22T08:13:36;7.05;;;4.70;;
45686;SDS011;31399;51.176;7.776;2023-07-22T08:16:04;8.65;;;5.25;;
45686;SDS011;31399;51.176;7.776;2023-07-22T08:18:32;8.07;;;4.63;;
45686;SDS011;31399;51.176;7.776;2023-07-22T08:20:59;8.40;;;5.03;;
45686;SDS011;31399;51.176;7.776;2023-07-22T08:23:26;6.88;;;4.72;;
45686;SDS011;31399;51.176;7.776;2023-07-22T08:25:53;7.40;;;4.32;;
45686;SDS011;31399;51.176;7.776;2023-07-22T08:28:19;8.13;;;3.90;;
45686;SDS011;31399;51.176;7.776;2023-07-22T08:30:49;6.68;;;4.90;;
45686;SDS011;31399;51.176;7.776;2023-07-22T08:33:16;8.63;;;4.55;;
45686;SDS011;31399;51.176;7.776;2023-07-22T08:35:52;10.48;;;4.20;;
45686;SDS011;31399;51.176;7.776;2023-07-22T08:38:19;9.18;;;4.38;;
45686;SDS011;31399;51.176;7.776;2023-07-22T08:40:48;6.25;;;3.63;;
45686;SDS011;31399;51.176;7.776;2023-07-22T08:43:18;8.18;;;3.80;;
45686;SDS011;31399;51.176;7.776;2023-07-22T08:45:47;7.03;;;4.22;;
45686;SDS011;31399;51.176;7.776;2023-07-22T08:48:15;5.88;;;3.58;;
45686;SDS011;31399;51.176;7.776;2023-07-22T08:50:45;5.03;;;3.47;;
45686;SDS011;31399;51.176;7.776;2023-07-22T08:53:13;7.32;;;4.38;;
45686;SDS011;31399;51.176;7.776;2023-07-22T08:55:41;8.40;;;4.45;;
45686;SDS011;31399;51.176;7.776;2023-07-22T08:58:09;6.28;;;4.00;;
45686;SDS011;31399;51.176;7.776;2023-07-22T09:00:36;8.00;;;4.38;;
45686;SDS011;31399;51.176;7.776;2023-07-22T09:03:04;9.00;;;4.78;;
45686;SDS011;31399;51.176;7.776;2023-07-22T09:05:31;8.27;;;4.32;;
45686;SDS011;31399;51.176;7.776;2023-07-22T09:07:59;6.70;;;3.75;;
45686;SDS011;31399;51.176;7.776;2023-07-22T09:10:28;5.72;;;3.90;;
45686;SDS011;31399;51.176;7.776;2023-07-22T09:12:56;11.23;;;3.97;;
45686;SDS011;31399;51.176;7.776;2023-07-22T09:15:22;7.28;;;4.07;;
45686;SDS011;31399;51.176;7.776;2023-07-22T09:17:50;6.03;;;4.63;;
45686;SDS011;31399;51.176;7.776;2023-07-22T09:20:17;8.65;;;4.18;;
45686;SDS011;31399;51.176;7.776;2023-07-22T09:22:44;7.40;;;4.55;;
45686;SDS011;31399;51.176;7.776;2023-07-22T09:25:15;8.55;;;4.15;;
45686;SDS011;31399;51.176;7.776;2023-07-22T09:27:49;7.22;;;4.15;;
45686;SDS011;31399;51.176;7.776;2023-07-22T09:30:20;6.20;;;4.18;;
45686;SDS011;31399;51.176;7.776;2023-07-22T09:32:48;8.35;;;4.47;;
45686;SDS011;31399;51.176;7.776;2023-07-22T09:35:16;10.35;;;4.60;;
45686;SDS011;31399;51.176;7.776;2023-07-22T09:37:43;5.30;;;3.95;;
45686;SDS011;31399;51.176;7.776;2023-07-22T09:40:21;8.93;;;4.43;;
45686;SDS011;31399;51.176;7.776;2023-07-22T09:42:52;6.03;;;4.32;;
45686;SDS011;31399;51.176;7.776;2023-07-22T09:45:21;6.50;;;3.88;;
45686;SDS011;31399;51.176;7.776;2023-07-22T09:47:49;6.70;;;3.90;;
45686;SDS011;31399;51.176;7.776;2023-07-22T09:52:46;5.57;;;4.10;;
45686;SDS011;31399;51.176;7.776;2023-07-22T09:55:20;4.60;;;3.42;;
45686;SDS011;31399;51.176;7.776;2023-07-22T09:58:06;7.35;;;4.22;;
45686;SDS011;31399;51.176;7.776;2023-07-22T10:00:36;6.20;;;3.75;;
45686;SDS011;31399;51.176;7.776;2023-07-22T10:03:03;9.20;;;4.35;;
45686;SDS011;31399;51.176;7.776;2023-07-22T10:05:33;6.50;;;3.92;;
45686;SDS011;31399;51.176;7.776;2023-07-22T10:08:01;5.78;;;3.92;;
45686;SDS011;31399;51.176;7.776;2023-07-22T10:10:32;6.13;;;3.95;;
45686;SDS011;31399;51.176;7.776;2023-07-22T10:13:03;8.15;;;4.78;;
45686;SDS011;31399;51.176;7.776;2023-07-22T10:15:31;6.93;;;3.95;;
45686;SDS011;31399;51.176;7.776;2023-07-22T10:18:00;5.35;;;3.50;;
45686;SDS011;31399;51.176;7.776;2023-07-22T10:20:31;4.28;;;3.83;;
45686;SDS011;31399;51.176;7.776;2023-07-22T10:23:01;4.97;;;3.53;;
45686;SDS011;31399;51.176;7.776;2023-07-22T10:25:27;4.57;;;3.22;;
45686;SDS011;31399;51.176;7.776;2023-07-22T10:27:54;3.75;;;3.05;;
45686;SDS011;31399;51.176;7.776;2023-07-22T10:30:21;4.00;;;2.92;;
45686;SDS011;31399;51.176;7.776;2023-07-22T10:32:51;6.35;;;3.10;;
45686;SDS011;31399;51.176;7.776;2023-07-22T10:38:07;4.55;;;2.20;;
45686;SDS011;31399;51.176;7.776;2023-07-22T10:43:18;3.00;;;2.28;;
45686;SDS011;31399;51.176;7.776;2023-07-22T10:45:52;4.20;;;2.22;;
45686;SDS011;31399;51.176;7.776;2023-07-22T10:48:20;4.28;;;2.45;;
45686;SDS011;31399;51.176;7.776;2023-07-22T10:50:49;2.97;;;2.25;;
45686;SDS011;31399;51.176;7.776;2023-07-22T11:12:00;3.17;;;2.50;;
45686;SDS011;31399;51.176;7.776;2023-07-22T11:14:29;2.90;;;2.40;;
45686;SDS011;31399;51.176;7.776;2023-07-22T11:16:57;4.97;;;2.90;;
45686;SDS011;31399;51.176;7.776;2023-07-22T11:19:26;4.63;;;2.80;;
45686;SDS011;31399;51.176;7.776;2023-07-22T11:21:54;3.35;;;2.25;;
45686;SDS011;31399;51.176;7.776;2023-07-22T11:24:22;6.97;;;2.97;;
45686;SDS011;31399;51.176;7.776;2023-07-22T11:26:50;4.13;;;3.03;;
45686;SDS011;31399;51.176;7.776;2023-07-22T11:29:18;4.78;;;2.72;;
45686;SDS011;31399;51.176;7.776;2023-07-22T11:31:45;4.15;;;2.65;;
45686;SDS011;31399;51.176;7.776;2023-07-22T11:34:20;3.75;;;2.95;;
45686;SDS011;31399;51.176;7.776;2023-07-22T11:36:49;4.75;;;3.05;;
45686;SDS011;31399;51.176;7.776;2023-07-22T11:39:17;4.28;;;3.10;;
45686;SDS011;31399;51.176;7.776;2023-07-22T11:41:45;3.35;;;2.88;;
45686;SDS011;31399;51.176;7.776;2023-07-22T11:44:14;5.72;;;2.95;;
45686;SDS011;31399;51.176;7.776;2023-07-22T11:46:53;5.68;;;3.20;;
45686;SDS011;31399;51.176;7.776;2023-07-22T11:49:30;3.55;;;2.70;;
45686;SDS011;31399;51.176;7.776;2023-07-22T11:51:59;2.95;;;2.65;;
45686;SDS011;31399;51.176;7.776;2023-07-22T11:54:30;4.55;;;2.83;;
45686;SDS011;31399;51.176;7.776;2023-07-22T11:56:58;3.45;;;2.80;;
45686;SDS011;31399;51.176;7.776;2023-07-22T11:59:56;3.78;;;2.45;;
45686;SDS011;31399;51.176;7.776;2023-07-22T12:02:23;6.55;;;2.95;;
45686;SDS011;31399;51.176;7.776;2023-07-22T12:04:52;3.75;;;2.95;;
45686;SDS011;31399;51.176;7.776;2023-07-22T12:07:25;3.58;;;3.10;;
45686;SDS011;31399;51.176;7.776;2023-07-22T12:09:57;3.72;;;2.83;;
45686;SDS011;31399;51.176;7.776;2023-07-22T12:12:35;3.70;;;2.95;;
45686;SDS011;31399;51.176;7.776;2023-07-22T12:15:03;3.67;;;2.55;;
45686;SDS011;31399;51.176;7.776;2023-07-22T12:17:42;5.60;;;3.05;;
45686;SDS011;31399;51.176;7.776;2023-07-22T12:20:10;3.17;;;2.72;;
45686;SDS011;31399;51.176;7.776;2023-07-22T12:22:37;3.20;;;2.92;;
45686;SDS011;31399;51.176;7.776;2023-07-22T12:25:04;3.15;;;2.63;;
45686;SDS011;31399;51.176;7.776;2023-07-22T12:27:32;2.88;;;2.58;;
45686;SDS011;31399;51.176;7.776;2023-07-22T12:29:58;3.50;;;2.70;;
45686;SDS011;31399;51.176;7.776;2023-07-22T12:32:25;4.63;;;2.95;;
45686;SDS011;31399;51.176;7.776;2023-07-22T12:34:51;3.97;;;3.08;;
45686;SDS011;31399;51.176;7.776;2023-07-22T12:37:18;3.20;;;2.60;;
45686;SDS011;31399;51.176;7.776;2023-07-22T12:39:45;3.15;;;2.80;;
45686;SDS011;31399;51.176;7.776;2023-07-22T12:42:12;4.25;;;2.97;;
45686;SDS011;31399;51.176;7.776;2023-07-22T12:44:38;4.15;;;3.15;;
45686;SDS011;31399;51.176;7.776;2023-07-22T12:47:05;2.67;;;2.40;;
45686;SDS011;31399;51.176;7.776;2023-07-22T12:49:32;4.35;;;2.53;;
45686;SDS011;31399;51.176;7.776;2023-07-22T12:51:59;2.67;;;2.30;;
45686;SDS011;31399;51.176;7.776;2023-07-22T12:54:30;4.50;;;2.60;;
45686;SDS011;31399;51.176;7.776;2023-07-22T12:56:57;5.75;;;2.70;;
45686;SDS011;31399;51.176;7.776;2023-07-22T12:59:24;3.45;;;2.53;;
45686;SDS011;31399;51.176;7.776;2023-07-22T13:01:51;3.78;;;2.72;;
45686;SDS011;31399;51.176;7.776;2023-07-22T13:04:17;3.78;;;2.60;;
45686;SDS011;31399;51.176;7.776;2023-07-22T13:06:44;5.13;;;2.70;;
45686;SDS011;31399;51.176;7.776;2023-07-22T13:09:10;3.22;;;2.38;;
45686;SDS011;31399;51.176;7.776;2023-07-22T13:11:37;3.88;;;2.33;;
45686;SDS011;31399;51.176;7.776;2023-07-22T13:14:04;3.17;;;2.40;;
45686;SDS011;31399;51.176;7.776;2023-07-22T13:16:33;3.42;;;2.33;;
45686;SDS011;31399;51.176;7.776;2023-07-22T13:18:59;3.75;;;2.50;;
45686;SDS011;31399;51.176;7.776;2023-07-22T13:21:27;3.10;;;2.10;;
45686;SDS011;31399;51.176;7.776;2023-07-22T13:23:54;3.58;;;2.28;;
45686;SDS011;31399;51.176;7.776;2023-07-22T13:26:21;3.15;;;2.30;;
45686;SDS011;31399;51.176;7.776;2023-07-22T13:28:47;2.58;;;1.98;;
45686;SDS011;31399;51.176;7.776;2023-07-22T13:31:14;4.82;;;2.08;;
45686;SDS011;31399;51.176;7.776;2023-07-22T13:33:40;3.50;;;2.15;;
45686;SDS011;31399;51.176;7.776;2023-07-22T13:36:07;2.75;;;1.92;;
45686;SDS011;31399;51.176;7.776;2023-07-22T13:38:35;5.07;;;1.90;;
45686;SDS011;31399;51.176;7.776;2023-07-22T13:41:04;5.13;;;1.80;;
45686;SDS011;31399;51.176;7.776;2023-07-22T13:43:31;3.10;;;2.13;;
45686;SDS011;31399;51.176;7.776;2023-07-22T13:45:58;3.83;;;2.20;;
45686;SDS011;31399;51.176;7.776;2023-07-22T13:48:24;3.25;;;2.17;;
45686;SDS011;31399;51.176;7.776;2023-07-22T13:50:51;4.32;;;2.00;;
45686;SDS011;31399;51.176;7.776;2023-07-22T13:53:17;3.47;;;2.00;;
45686;SDS011;31399;51.176;7.776;2023-07-22T13:55:44;4.78;;;1.67;;
45686;SDS011;31399;51.176;7.776;2023-07-22T13:58:15;3.55;;;2.13;;
45686;SDS011;31399;51.176;7.776;2023-07-22T14:00:42;3.17;;;1.90;;
45686;SDS011;31399;51.176;7.776;2023-07-22T14:03:08;2.78;;;1.85;;
45686;SDS011;31399;51.176;7.776;2023-07-22T14:05:35;5.25;;;2.17;;
45686;SDS011;31399;51.176;7.776;2023-07-22T14:08:02;2.67;;;1.75;;
45686;SDS011;31399;51.176;7.776;2023-07-22T14:10:28;5.97;;;1.80;;
45686;SDS011;31399;51.176;7.776;2023-07-22T14:12:55;2.42;;;1.73;;
45686;SDS011;31399;51.176;7.776;2023-07-22T14:15:22;2.90;;;1.90;;
45686;SDS011;31399;51.176;7.776;2023-07-22T14:17:49;2.72;;;1.85;;
45686;SDS011;31399;51.176;7.776;2023-07-22T14:20:15;2.40;;;1.90;;
45686;SDS011;31399;51.176;7.776;2023-07-22T14:22:42;3.58;;;1.20;;
45686;SDS011;31399;51.176;7.776;2023-07-22T14:25:09;3.28;;;1.75;;
45686;SDS011;31399;51.176;7.776;2023-07-22T14:27:37;2.22;;;1.60;;
45686;SDS011;31399;51.176;7.776;2023-07-22T14:30:04;2.30;;;1.60;;
45686;SDS011;31399;51.176;7.776;2023-07-22T14:32:32;2.30;;;1.55;;
45686;SDS011;31399;51.176;7.776;2023-07-22T14:34:59;3.47;;;1.80;;
45686;SDS011;31399;51.176;7.776;2023-07-22T14:37:25;4.63;;;1.50;;
45686;SDS011;31399;51.176;7.776;2023-07-22T14:39:52;2.30;;;1.52;;
45686;SDS011;31399;51.176;7.776;2023-07-22T14:42:19;6.00;;;1.48;;
45686;SDS011;31399;51.176;7.776;2023-07-22T14:44:45;2.55;;;1.42;;
45686;SDS011;31399;51.176;7.776;2023-07-22T14:47:12;2.92;;;1.42;;
45686;SDS011;31399;51.176;7.776;2023-07-22T14:49:39;1.73;;;1.55;;
45686;SDS011;31399;51.176;7.776;2023-07-22T14:52:05;1.67;;;1.48;;
45686;SDS011;31399;51.176;7.776;2023-07-22T14:54:33;2.00;;;1.38;;
45686;SDS011;31399;51.176;7.776;2023-07-22T14:57:00;3.13;;;1.60;;
45686;SDS011;31399;51.176;7.776;2023-07-22T14:59:26;3.55;;;1.40;;
45686;SDS011;31399;51.176;7.776;2023-07-22T15:01:53;3.38;;;1.55;;
45686;SDS011;31399;51.176;7.776;2023-07-22T15:04:20;2.03;;;1.58;;
45686;SDS011;31399;51.176;7.776;2023-07-22T15:06:47;4.15;;;1.70;;
45686;SDS011;31399;51.176;7.776;2023-07-22T15:09:13;3.05;;;1.60;;
45686;SDS011;31399;51.176;7.776;2023-07-22T15:11:40;2.22;;;1.33;;
45686;SDS011;31399;51.176;7.776;2023-07-22T15:14:06;4.25;;;1.42;;